Stuttgart Airport

EDDS · Badenia-Wirtembergia, Niemcy

Historia METAR EDDS · Stuttgart Airport

Poniżej widzisz METAR-y z ostatnich kilku dni. Wybierz rok, aby przeglądać starsze METAR-y, począwszy od roku 2007.

9 grudnia 2022

Czas Kod Pogoda Temp. Widoczność Sufit Wiatr METAR/SPECI
04:20
V
-5 °C 10 km+ - 330° 330° 3 kt METAR EDDS 090320Z AUTO 33003KT CAVOK M05/M06 Q1004
03:50
V
-6 °C 10 km+ - 280° 280° 2 kt METAR EDDS 090250Z AUTO 28002KT CAVOK M06/M08 Q1005
03:20
V
-4 °C 10 km+ - Var Var 1 kt METAR EDDS 090220Z AUTO VRB01KT CAVOK M04/M06 Q1005
02:50
V
-3 °C 10 km+ - Var Var 2 kt METAR EDDS 090150Z AUTO VRB02KT CAVOK M03/M04 Q1005
02:20
V
-4 °C 10 km+ - 320° 320° 3 kt METAR EDDS 090120Z AUTO 32003KT CAVOK M04/M05 Q1005
01:50
V
-3 °C 10 km+ - Var Var 1 kt METAR EDDS 090050Z AUTO VRB01KT CAVOK M03/M05 Q1005
01:20
V
-3 °C 10 km+ - Var Var 2 kt METAR EDDS 090020Z AUTO VRB02KT CAVOK M03/M05 Q1005
00:50
V
-3 °C 10 km+ - 360° 360° 1 kt METAR EDDS 082350Z AUTO 36001KT CAVOK M03/M04 Q1006
00:20
V
-3 °C 10 km+ - Var Var 1 kt METAR EDDS 082320Z AUTO VRB01KT CAVOK M03/M05 Q1006

8 grudnia 2022

Czas Kod Pogoda Temp. Widoczność Sufit Wiatr METAR/SPECI
23:50
V
-3 °C 10 km+ - 280° 280° 2 kt METAR EDDS 082250Z AUTO 28002KT CAVOK M03/M05 Q1006
23:20
V
-3 °C 10 km+ - Var Var 2 kt METAR EDDS 082220Z AUTO VRB02KT CAVOK M03/M06 Q1006
22:50
V
-2 °C 10 km+ - 230° 230° 1 kt METAR EDDS 082150Z AUTO 23001KT CAVOK M02/M05 Q1006
22:20
V
-2 °C 10 km+ - Var Var 1 kt METAR EDDS 082120Z AUTO VRB01KT CAVOK M02/M04 Q1007 NOSIG
21:50
V
-1 °C 10 km+ - Var Var 2 kt METAR EDDS 082050Z AUTO VRB02KT CAVOK M01/M04 Q1007 NOSIG
21:20
V
-1 °C 10 km+ - 080° 080° 1 kt METAR EDDS 082020Z AUTO 08001KT 9999 FEW040 M01/M04 Q1007 NOSIG
20:50
V
0 °C 10 km+ - Var Var 1 kt METAR EDDS 081950Z AUTO VRB01KT 9999 SCT041 M00/M03 Q1007 NOSIG
20:20
V
1 °C 10 km+ 4.100 ft Var Var 1 kt METAR EDDS 081920Z AUTO VRB01KT 9999 BKN041 01/M04 Q1007 NOSIG
19:50
V
1 °C 10 km+ 4.100 ft Var Var 1 kt METAR EDDS 081850Z AUTO VRB01KT 9999 BKN041 01/M03 Q1007 NOSIG
19:20
V
1 °C 10 km+ 3.900 ft Var Var 2 kt METAR EDDS 081820Z AUTO VRB02KT 9999 OVC039 01/M03 Q1007 NOSIG
18:50
V
1 °C 10 km+ 3.900 ft Var Var 1 kt METAR EDDS 081750Z AUTO VRB01KT 9999 OVC039 01/M03 Q1007 NOSIG
18:20
V
1 °C 10 km+ 4.100 ft Var Var 1 kt METAR EDDS 081720Z AUTO VRB01KT 9999 OVC041 01/M02 Q1007 NOSIG
17:50
V
1 °C 10 km+ 3.900 ft Var Var 1 kt METAR EDDS 081650Z AUTO VRB01KT 9999 OVC039 01/M02 Q1007 NOSIG
17:20
V
2 °C 10 km+ 3.900 ft Var Var 2 kt METAR EDDS 081620Z AUTO VRB02KT 9999 OVC039 02/M03 Q1007 NOSIG
16:50
V
1 °C 10 km+ 3.900 ft Var Var 2 kt METAR EDDS 081550Z AUTO VRB02KT 9999 OVC039 01/M02 Q1007 NOSIG
16:20
V
2 °C 10 km+ 3.900 ft Var Var 2 kt METAR EDDS 081520Z AUTO VRB02KT 9999 BKN039 02/M02 Q1008 NOSIG
15:50
V
2 °C 10 km+ 3.700 ft 200° 200° 4 kt METAR EDDS 081450Z AUTO 20004KT 170V230 9999 OVC037 02/M03 Q1007 NOSIG
15:20
V
3 °C 10 km+ 3.500 ft 190° 190° 4 kt METAR EDDS 081420Z AUTO 19004KT 170V240 9999 OVC035 03/M02 Q1008 NOSIG
14:50
V
4 °C 10 km+ 3.500 ft 170° 170° 4 kt METAR EDDS 081350Z AUTO 17004KT 130V220 9999 FEW023 BKN035 BKN041 04/M03 Q1007 NOSIG
14:20
V
3 °C 10 km+ - 190° 190° 4 kt METAR EDDS 081320Z AUTO 19004KT 160V240 CAVOK 03/M02 Q1008 NOSIG
13:50
V
3 °C 10 km+ - 170° 170° 3 kt METAR EDDS 081250Z AUTO 17003KT 110V220 9999 FEW024 03/M03 Q1008 NOSIG
13:20
V
2 °C 10 km+ - 230° 230° 3 kt METAR EDDS 081220Z AUTO 23003KT 180V260 9999 FEW020 02/M03 Q1008 NOSIG
12:50
V
2 °C 10 km+ - 200° 200° 4 kt METAR EDDS 081150Z AUTO 20004KT 150V250 9999 FEW019 02/M02 Q1008 NOSIG
12:20
V
2 °C 10 km+ - 200° 200° 4 kt METAR EDDS 081120Z AUTO 20004KT 160V260 CAVOK 02/M02 Q1008 NOSIG
11:50
V
3 °C 10 km+ - 210° 210° 4 kt METAR EDDS 081050Z AUTO 21004KT 160V250 CAVOK 03/M01 Q1009 NOSIG
11:20
V
2 °C 10 km+ - 180° 180° 4 kt METAR EDDS 081020Z AUTO 18004KT 130V200 CAVOK 02/M02 Q1009 NOSIG
10:50
V
2 °C 10 km+ - 190° 190° 3 kt METAR EDDS 080950Z AUTO 19003KT 120V240 CAVOK 02/M02 Q1010 NOSIG
10:20
V
1 °C 10 km+ - 180° 180° 3 kt METAR EDDS 080920Z AUTO 18003KT 130V210 CAVOK 01/M02 Q1010 NOSIG
09:50
V
0 °C 10 km+ - Var Var 2 kt METAR EDDS 080850Z AUTO VRB02KT CAVOK M00/M03 Q1010 NOSIG
09:20
V
-1 °C 10 km+ - Var Var 2 kt METAR EDDS 080820Z AUTO VRB02KT CAVOK M01/M03 Q1010 NOSIG
08:50
V
-2 °C 10 km+ - Var Var 2 kt METAR EDDS 080750Z AUTO VRB02KT CAVOK M02/M03 Q1010 NOSIG
08:20
V
-3 °C 10 km+ - Var Var 1 kt METAR EDDS 080720Z AUTO VRB01KT CAVOK M03/M04 Q1010 NOSIG
07:50
V
-3 °C 10 km+ - Var Var 1 kt METAR EDDS 080650Z AUTO VRB01KT CAVOK M03/M04 Q1010 NOSIG
07:20
V
-2 °C 10 km+ - Var Var 2 kt METAR EDDS 080620Z AUTO VRB02KT CAVOK M02/M04 Q1010 NOSIG
06:50
V
-3 °C 10 km+ - Var Var 1 kt METAR EDDS 080550Z AUTO VRB01KT CAVOK M03/M03 Q1010 NOSIG
06:20
V
-3 °C 10 km+ - 180° 180° 2 kt METAR EDDS 080520Z AUTO 18002KT CAVOK M03/M04 Q1010
05:50
V
-2 °C 10 km+ - Var Var 1 kt METAR EDDS 080450Z AUTO VRB01KT CAVOK M02/M03 Q1010
05:20
V
-2 °C 10 km+ - Var Var 1 kt METAR EDDS 080420Z AUTO VRB01KT CAVOK M02/M04 Q1010
04:50
V
-2 °C 10 km+ - Var Var 1 kt METAR EDDS 080350Z AUTO VRB01KT CAVOK M02/M04 Q1011
04:20
V
-2 °C 10 km+ - Var Var 1 kt METAR EDDS 080320Z AUTO VRB01KT CAVOK M02/M03 Q1011
03:50
V
-2 °C 10 km+ - Var Var 2 kt METAR EDDS 080250Z AUTO VRB02KT CAVOK M02/M02 Q1011
03:20
V
-1 °C 10 km+ - Var Var 2 kt METAR EDDS 080220Z AUTO VRB02KT CAVOK M01/M02 Q1011
02:50
V
-1 °C 10 km+ - 240° 240° 2 kt METAR EDDS 080150Z AUTO 24002KT CAVOK M01/M02 Q1012
02:20
V
-1 °C 10 km+ - 200° 200° 2 kt METAR EDDS 080120Z AUTO 20002KT CAVOK M01/M02 Q1012
01:50
V
0 °C 10 km+ - 240° 240° 2 kt METAR EDDS 080050Z AUTO 24002KT 9999 FEW035 M00/M02 Q1012
01:20
V
0 °C 10 km+ - Var Var 2 kt METAR EDDS 080020Z AUTO VRB02KT 9999 SCT028 SCT035 M00/M02 Q1012
00:50
M
1 °C 10 km+ 2.800 ft 230° 230° 3 kt METAR EDDS 072350Z AUTO 23003KT 9999 BKN028 01/M01 Q1012
00:20
M
1 °C 10 km+ 2.800 ft 270° 270° 3 kt METAR EDDS 072320Z AUTO 27003KT 9999 BKN028 01/M01 Q1013

7 grudnia 2022

Czas Kod Pogoda Temp. Widoczność Sufit Wiatr METAR/SPECI
23:50
V
1 °C 10 km+ - 260° 260° 1 kt METAR EDDS 072250Z AUTO 26001KT CAVOK 01/M01 Q1013
23:20
V
2 °C 10 km+ - 190° 190° 3 kt METAR EDDS 072220Z AUTO 19003KT CAVOK 02/M01 Q1013
22:50
V
2 °C 10 km+ - Var Var 2 kt METAR EDDS 072150Z AUTO VRB02KT CAVOK 02/M01 Q1013
22:20
V
2 °C 10 km+ - Var Var 2 kt METAR EDDS 072120Z AUTO VRB02KT CAVOK 02/M00 Q1013
21:50
V
2 °C 10 km+ - Var Var 1 kt METAR EDDS 072050Z AUTO VRB01KT CAVOK 02/M00 Q1013 NOSIG
21:20
V
2 °C 10 km+ - Var Var 2 kt METAR EDDS 072020Z AUTO VRB02KT CAVOK 02/M00 Q1013 NOSIG
20:50
V
2 °C 10 km+ - 190° 190° 3 kt METAR EDDS 071950Z AUTO 19003KT 170V230 CAVOK 02/M00 Q1014 NOSIG
20:20
V
2 °C 10 km+ - Var Var 1 kt METAR EDDS 071920Z AUTO VRB01KT CAVOK 02/M00 Q1014 NOSIG
19:50
V
2 °C 10 km+ 4.900 ft 230° 230° 3 kt METAR EDDS 071850Z AUTO 23003KT 160V260 9999 OVC049 02/M00 Q1014 NOSIG
19:20
V
2 °C 10 km+ - 250° 250° 5 kt METAR EDDS 071820Z AUTO 25005KT 220V280 CAVOK 02/M00 Q1014 NOSIG
18:50
M
3 °C 10 km+ 2.400 ft 270° 270° 7 kt METAR EDDS 071750Z AUTO 27007KT 9999 BKN024 03/M01 Q1014 NOSIG
18:20
M
3 °C 10 km+ 2.300 ft 280° 280° 6 kt METAR EDDS 071720Z AUTO 28006KT 9999 BKN023 03/M00 Q1014
17:50
M
3 °C 10 km+ 2.300 ft 290° 290° 8 kt METAR EDDS 071650Z AUTO 29008KT 9999 BKN023 03/00 Q1014 NOSIG
17:20
M
3 °C 10 km+ 2.000 ft 300° 300° 9 kt METAR EDDS 071620Z AUTO 30009KT 9999 OVC020 03/00 Q1015 NOSIG
16:50
M
3 °C 10 km+ 2.400 ft 310° 310° 5 kt METAR EDDS 071550Z AUTO 31005KT 9999 BKN024 03/M00 Q1015 NOSIG
16:20
M
3 °C 10 km+ 2.600 ft 290° 290° 6 kt METAR EDDS 071520Z AUTO 29006KT 9999 BKN026 03/M00 Q1015 NOSIG
15:50
M
4 °C 10 km+ 2.800 ft 310° 310° 7 kt METAR EDDS 071450Z AUTO 31007KT 9999 FEW017 BKN028 BKN028 04/00 Q1015 NOSIG
15:20
M
4 °C 10 km+ 2.700 ft 310° 310° 5 kt METAR EDDS 071420Z AUTO 31005KT 9999 SCT019 OVC027 04/00 Q1015 NOSIG
14:50
M
4 °C 10 km+ 1.700 ft 320° 320° 5 kt METAR EDDS 071350Z AUTO 32005KT 300V030 9999 BKN017 BKN023 04/00 Q1015 NOSIG
14:20
M
4 °C 10 km+ 1.900 ft 250° 250° 4 kt METAR EDDS 071320Z AUTO 25004KT 190V320 9999 BKN019 04/00 Q1015 NOSIG
13:50
M
4 °C 10 km+ 2.000 ft 230° 230° 3 kt METAR EDDS 071250Z AUTO 23003KT 170V290 9999 OVC020 04/M00 Q1015 NOSIG
13:20
M
4 °C 10 km+ 2.100 ft 220° 220° 4 kt METAR EDDS 071220Z AUTO 22004KT 160V250 9999 BKN021 BKN045 04/00 Q1015 NOSIG
12:50
V
4 °C 10 km+ - 210° 210° 3 kt METAR EDDS 071150Z AUTO 21003KT 150V260 9999 FEW024 SCT040 04/M00 Q1016 NOSIG
12:20
V
4 °C 10 km+ - 230° 230° 4 kt METAR EDDS 071120Z AUTO 23004KT 170V280 9999 FEW022 SCT038 04/00 Q1016 NOSIG
11:50
V
4 °C 10 km+ - 230° 230° 5 kt METAR EDDS 071050Z AUTO 23005KT 170V270 9999 SCT042 04/M00 Q1016 NOSIG
11:20
V
3 °C 10 km+ - 230° 230° 5 kt METAR EDDS 071020Z AUTO 23005KT 170V260 CAVOK 03/M00 Q1016 NOSIG
10:50
V
3 °C 10 km+ - 210° 210° 3 kt METAR EDDS 070950Z AUTO 21003KT 160V280 CAVOK 03/M01 Q1017 NOSIG
10:20
V
3 °C 10 km+ - 210° 210° 4 kt METAR EDDS 070920Z AUTO 21004KT 150V250 CAVOK 03/M00 Q1017 NOSIG
09:50
V
2 °C 10 km+ - 210° 210° 3 kt METAR EDDS 070850Z AUTO 21003KT 130V270 CAVOK 02/M00 Q1017 NOSIG
09:20
V
2 °C 10 km+ - Var Var 2 kt METAR EDDS 070820Z AUTO VRB02KT CAVOK 02/00 Q1017 NOSIG
08:50
V
1 °C 10 km+ - 230° 230° 3 kt METAR EDDS 070750Z AUTO 23003KT 200V260 CAVOK 01/M00 Q1017 NOSIG
08:20
V
2 °C 10 km+ - Var Var 2 kt METAR EDDS 070720Z AUTO VRB02KT CAVOK 02/M00 Q1016 NOSIG
07:50
V
1 °C 10 km+ - 260° 260° 3 kt METAR EDDS 070650Z AUTO 26003KT 220V320 CAVOK 01/M01 Q1016 NOSIG
07:20
V
1 °C 10 km+ - 310° 310° 3 kt METAR EDDS 070620Z AUTO 31003KT 230V340 CAVOK 01/M01 Q1016 NOSIG
06:50
V
2 °C 10 km+ - Var Var 1 kt METAR EDDS 070550Z AUTO VRB01KT CAVOK 02/M00 Q1016 NOSIG
06:20
V
2 °C 10 km+ 4.900 ft Var Var 3 kt METAR EDDS 070520Z AUTO VRB03KT 9999 OVC049 02/M00 Q1016 NOSIG
05:50
V
2 °C 10 km+ 4.900 ft 230° 230° 4 kt METAR EDDS 070450Z AUTO 23004KT 210V270 9999 BKN049 02/M00 Q1016
05:20
V
2 °C 10 km+ 4.900 ft 230° 230° 4 kt METAR EDDS 070420Z AUTO 23004KT 200V260 9999 OVC049 02/00 Q1016
04:50
V
2 °C 10 km+ 4.800 ft 250° 250° 3 kt METAR EDDS 070350Z AUTO 25003KT 220V290 9999 OVC048 02/00 Q1016
04:20
V
2 °C 10 km+ - Var Var 2 kt METAR EDDS 070320Z AUTO VRB02KT CAVOK 02/00 Q1016
03:50
V
2 °C 10 km+ - 290° 290° 3 kt METAR EDDS 070250Z AUTO 29003KT 9999 FEW034 02/01 Q1017
03:20
V
2 °C 10 km+ 3.300 ft 330° 330° 5 kt METAR EDDS 070220Z AUTO 33005KT 9999 SCT027 BKN033 02/01 Q1017
02:50
M
3 °C 10 km+ 2.000 ft 320° 320° 5 kt METAR EDDS 070150Z AUTO 32005KT 290V350 9999 FEW009 BKN020 OVC025 03/01 Q1017
02:20
I
3 °C 10 km+ 900 ft 320° 320° 4 kt METAR EDDS 070120Z AUTO 32004KT 9999 BKN009 BKN016 OVC049 03/01 Q1017
01:50
M
3 °C 10 km+ 1.500 ft 300° 300° 3 kt METAR EDDS 070050Z AUTO 30003KT 9999 SCT009 BKN015 OVC023 03/01 Q1017
01:20
M
3 °C 10 km+ 1.000 ft 300° 300° 3 kt METAR EDDS 070020Z AUTO 30003KT 9999 BKN010 BKN020 OVC025 03/02 Q1017
00:50
I
3 °C 10 km+ 700 ft 290° 290° 3 kt METAR EDDS 062350Z AUTO 29003KT 9999 BKN007 BKN019 OVC026 03/02 Q1017
00:20
I
3 °C 10 km+ 700 ft 280° 280° 4 kt METAR EDDS 062320Z AUTO 28004KT 9999 BKN007 BKN014 OVC026 03/01 Q1017

6 grudnia 2022

Czas Kod Pogoda Temp. Widoczność Sufit Wiatr METAR/SPECI
23:50
M
3 °C 10 km+ 1.900 ft 310° 310° 4 kt METAR EDDS 062250Z AUTO 31004KT 9999 SCT009 BKN019 OVC023 03/01 Q1017
23:20
M
3 °C 10 km+ 2.200 ft 310° 310° 3 kt METAR EDDS 062220Z AUTO 31003KT 9999 BKN022 OVC026 03/01 Q1017
22:50
M
3 °C 10 km+ 2.200 ft 300° 300° 5 kt METAR EDDS 062150Z AUTO 30005KT 9999 FEW009 SCT015 OVC022 03/01 Q1017
22:20
M
3 °C 10 km+ 1.500 ft 290° 290° 4 kt METAR EDDS 062120Z AUTO 29004KT 9999 FEW008 BKN015 OVC020 03/01 Q1017
21:50
I
3 °C 10 km+ 900 ft 290° 290° 5 kt METAR EDDS 062050Z AUTO 29005KT 9999 BKN009 BKN015 OVC019 03/01 Q1017 TEMPO SCT009 BKN015
21:20
M
3 °C 10 km+ 1.100 ft 290° 290° 4 kt METAR EDDS 062020Z AUTO 29004KT 9999 BKN011 03/01 Q1017 BECMG BKN008
20:50
M
3 °C 10 km+ 1.300 ft 300° 300° 4 kt METAR EDDS 061950Z AUTO 30004KT 9999 FEW008 OVC013 03/01 Q1017 NOSIG
20:20
M
3 °C 10 km+ 1.000 ft 290° 290° 4 kt METAR EDDS 061920Z AUTO 29004KT 9999 BKN010 OVC014 03/01 Q1017 NOSIG
19:50
M
3 °C 10 km+ 1.100 ft 290° 290° 3 kt METAR EDDS 061850Z AUTO 29003KT 9999 BKN011 03/01 Q1017 NOSIG
19:20
M
3 °C 10 km+ 1.200 ft 290° 290° 4 kt METAR EDDS 061820Z AUTO 29004KT 260V320 9999 BKN012 OVC016 03/01 Q1017 NOSIG
18:50
M
3 °C 10 km+ 1.200 ft 290° 290° 3 kt METAR EDDS 061750Z AUTO 29003KT 9999 BKN012 OVC016 03/01 Q1017 NOSIG
18:20
M
3 °C 10 km+ 1.300 ft 300° 300° 5 kt METAR EDDS 061720Z AUTO 30005KT 9999 OVC013 03/01 Q1017 NOSIG
17:50
M
3 °C 10 km+ 1.200 ft 290° 290° 5 kt METAR EDDS 061650Z AUTO 29005KT 9999 OVC012 03/01 Q1017 NOSIG
17:20
M
3 °C 10 km+ 1.300 ft 300° 300° 5 kt METAR EDDS 061620Z AUTO 30005KT 9999 BKN013 BKN017 03/01 Q1017 NOSIG
16:50
M
3 °C 10 km+ 1.200 ft 320° 320° 4 kt METAR EDDS 061550Z AUTO 32004KT 270V350 9999 OVC012 03/01 Q1017 NOSIG
16:20
M
3 °C 10 km+ 1.400 ft 310° 310° 5 kt METAR EDDS 061520Z AUTO 31005KT 9999 FEW008 OVC014 03/01 Q1017 NOSIG
15:50
I
3 °C 10 km+ 900 ft 280° 280° 9 kt METAR EDDS 061450Z AUTO 28009KT 9999 OVC009 03/01 Q1017 NOSIG
15:20
I
3 °C 10 km+ 800 ft 290° 290° 7 kt METAR EDDS 061420Z AUTO 29007KT 9999 BKN008 OVC012 03/02 Q1017 NOSIG
14:50
I
3 °C 10 km+ 700 ft 310° 310° 6 kt METAR EDDS 061350Z AUTO 31006KT 9999 BKN007 OVC011 03/02 Q1017 NOSIG
14:20
I
3 °C 10 km+ 900 ft 330° 330° 6 kt METAR EDDS 061320Z AUTO 33006KT 9999 BKN009 OVC013 03/02 Q1017 NOSIG
13:50
M
4 °C 10 km+ 1.300 ft 330° 330° 6 kt METAR EDDS 061250Z AUTO 33006KT 9999 OVC013 04/02 Q1017 NOSIG
13:20
M
4 °C 10 km+ 1.100 ft 310° 310° 4 kt METAR EDDS 061220Z AUTO 31004KT 270V340 9999 OVC011 04/02 Q1017 NOSIG
12:50
M
4 °C 10 km+ 1.100 ft Var Var 1 kt METAR EDDS 061150Z AUTO VRB01KT 9999 OVC011 04/02 Q1017 NOSIG
12:20
M
4 °C 10 km+ 1.100 ft Var Var 1 kt METAR EDDS 061120Z AUTO VRB01KT 9999 OVC011 04/01 Q1017
11:50
M
4 °C 10 km+ 1.300 ft Var Var 1 kt METAR EDDS 061050Z AUTO VRB01KT 9999 BKN013 OVC026 04/01 Q1017 NOSIG
11:20
M
4 °C 10 km+ 2.600 ft Var Var 2 kt METAR EDDS 061020Z AUTO VRB02KT 9999 SCT012 BKN026 OVC030 04/01 Q1017 TEMPO BKN012
10:50
V
3 °C 10 km+ - Var Var 2 kt METAR EDDS 060950Z AUTO VRB02KT 9999 ///////// 03/00 Q1017 RE// TEMPO BKN013

My i strony trzecie śledzimy Twoje zachowanie internetowe na naszej stronie za pomocą plików cookie. Jeśli kontynuujesz, zakładamy, że zgadzasz się z naszymi polityka plików cookie.